Map

Track Data

SID SEASON NUMBER BASIN SUBBASIN NAME ISO_TIME NATURE LAT LON WMO_WIND WMO_PRES WMO_AGENCY TRACK_TYPE DIST2LAND LANDFALL IFLAG USA_AGENCY USA_ATCF_ID USA_LAT USA_LON USA_RECORD USA_STATUS USA_WIND USA_PRES USA_SSHS USA_R34_NE USA_R34_SE USA_R34_SW USA_R34_NW USA_R50_NE USA_R50_SE USA_R50_SW USA_R50_NW USA_R64_NE USA_R64_SE USA_R64_SW USA_R64_NW USA_POCI USA_ROCI USA_RMW USA_EYE TOKYO_LAT TOKYO_LON TOKYO_GRADE TOKYO_WIND TOKYO_PRES TOKYO_R50_DIR TOKYO_R50_LONG TOKYO_R50_SHORT TOKYO_R30_DIR TOKYO_R30_LONG TOKYO_R30_SHORT TOKYO_LAND CMA_LAT CMA_LON CMA_CAT CMA_WIND CMA_PRES HKO_LAT HKO_LON HKO_CAT HKO_WIND HKO_PRES NEWDELHI_LAT NEWDELHI_LON NEWDELHI_GRADE NEWDELHI_WIND NEWDELHI_PRES NEWDELHI_CI NEWDELHI_DP NEWDELHI_POCI REUNION_LAT REUNION_LON REUNION_TYPE REUNION_WIND REUNION_PRES REUNION_TNUM REUNION_CI REUNION_RMW REUNION_R34_NE REUNION_R34_SE REUNION_R34_SW REUNION_R34_NW REUNION_R50_NE REUNION_R50_SE REUNION_R50_SW REUNION_R50_NW REUNION_R64_NE REUNION_R64_SE REUNION_R64_SW REUNION_R64_NW BOM_LAT BOM_LON BOM_TYPE BOM_WIND BOM_PRES BOM_TNUM BOM_CI BOM_RMW BOM_R34_NE BOM_R34_SE BOM_R34_SW BOM_R34_NW BOM_R50_NE BOM_R50_SE BOM_R50_SW BOM_R50_NW BOM_R64_NE BOM_R64_SE BOM_R64_SW BOM_R64_NW BOM_ROCI BOM_POCI BOM_EYE BOM_POS_METHOD BOM_PRES_METHOD NADI_LAT NADI_LON NADI_CAT NADI_WIND NADI_PRES WELLINGTON_LAT WELLINGTON_LON WELLINGTON_WIND WELLINGTON_PRES DS824_LAT DS824_LON DS824_STAGE DS824_WIND DS824_PRES TD9636_LAT TD9636_LON TD9636_STAGE TD9636_WIND TD9636_PRES TD9635_LAT TD9635_LON TD9635_WIND TD9635_PRES TD9635_ROCI NEUMANN_LAT NEUMANN_LON NEUMANN_CLASS NEUMANN_WIND NEUMANN_PRES MLC_LAT MLC_LON MLC_CLASS MLC_WIND MLC_PRES USA_GUST BOM_GUST BOM_GUST_PER REUNION_GUST REUNION_GUST_PER USA_SEAHGT USA_SEARAD_NE USA_SEARAD_SE USA_SEARAD_SW USA_SEARAD_NW STORM_SPEED STORM_DIR
1947168N11132 1947 39 WP MM CAROL 1947-06-17 06:00:00 TS 11.0000 132.000 main 666 635 O________O_O__ jtwc_wp WP031947 11.0000 132.000 45 0 11.0000 132.000 TC 45 11.0000 132.000 45 998 360 6 277
1947168N11132 1947 39 WP MM CAROL 1947-06-17 09:00:00 TS 11.0376 131.678 main 635 608 P________P_P__ WP031947 11.0376 131.678 45 0 11.0376 131.678 TC 45 11.0376 131.678 45 997 300 6 280
1947168N11132 1947 39 WP MM CAROL 1947-06-17 12:00:00 TS 11.1000 131.400 main 608 590 O________OOO__ jtwc_wp WP031947 11.1000 131.400 45 0 11.1000 131.400 TC 45 11.1000 131.400 2 45 11.1000 131.400 45 997 240 5 289
1947168N11132 1947 39 WP MM CAROL 1947-06-17 15:00:00 TS 11.1991 131.187 main 590 568 P________PPP__ WP031947 11.1999 131.193 45 0 11.1999 131.193 TC 45 11.1940 131.154 2 46 11.1999 131.193 45 996 210 5 296
1947168N11132 1947 39 WP MM CAROL 1947-06-17 18:00:00 TS 11.2961 130.983 main 568 546 O________OPO__ jtwc_wp WP031947 11.3000 131.000 45 0 11.3000 131.000 TC 45 11.2803 130.916 2 47 11.3000 131.000 45 996 180 5 289
1947168N11132 1947 39 WP MM CAROL 1947-06-17 21:00:00 TS 11.3504 130.736 main 536 514 P________PPP__ WP031947 11.3500 130.750 47 0 11.3500 130.750 TC 47 11.3515 130.695 2 48 11.3500 130.750 47 995 210 5 282
1947168N11132 1947 39 WP MM CAROL 1947-06-18 00:00:00 TS 11.4000 130.500 main 514 494 O________OOO__ jtwc_wp WP031947 11.4000 130.500 50 0 11.4000 130.500 TC 50 11.4000 130.500 2 50 11.4000 130.500 50 995 240 4 286
1947168N11132 1947 39 WP MM CAROL 1947-06-18 03:00:00 TS 11.4710 130.302 main 494 473 P________PPP__ WP031947 11.4850 130.292 50 0 11.4850 130.292 TC 50 11.4291 130.332 2 50 11.4850 130.292 50 994 240 4 294
1947168N11132 1947 39 WP MM CAROL 1947-06-18 06:00:00 TS 11.5711 130.116 main 473 454 O________OPO__ jtwc_wp WP031947 11.6000 130.100 50 0 11.6000 130.100 TC 50 11.4846 130.166 2 50 11.6000 130.100 50 993 240 5 301
1947168N11132 1947 39 WP MM CAROL 1947-06-18 09:00:00 TS 11.7069 129.905 main 454 434 P________PPP__ WP031947 11.7350 129.885 50 0 11.7350 129.885 TC 50 11.6228 129.966 2 50 11.7350 129.885 50 992 240 5 309
1947168N11132 1947 39 WP MM CAROL 1947-06-18 12:00:00 TS 11.9000 129.700 main 437 429 O________OOO__ jtwc_wp WP031947 11.9000 129.700 50 0 11.9000 129.700 TC 50 11.9000 129.700 2 50 11.9000 129.700 50 992 240 5 321
1947168N11132 1947 39 WP MM CAROL 1947-06-18 15:00:00 TS 12.0760 129.598 main 432 422 P________PPP__ WP031947 11.9646 129.689 50 0 11.9646 129.689 TC 50 12.4099 129.327 2 52 11.9646 129.689 50 992 210 7 329
1947168N11132 1947 39 WP MM CAROL 1947-06-18 18:00:00 TS 12.4882 129.346 main 414 368 O________OPO__ jtwc_wp WP031947 12.3000 129.500 50 0 12.3000 129.500 TC 50 13.0528 128.884 2 55 12.3000 129.500 50 992 180 16 326
1947168N11132 1947 39 WP MM CAROL 1947-06-18 21:00:00 TS 13.4212 128.655 main 372 351 P________PPP__ WP031947 13.3135 128.740 55 0 13.3135 128.740 TC 55 13.7443 128.399 2 57 13.3135 128.740 55 991 180 24 324
1947168N11132 1947 39 WP MM CAROL 1947-06-19 00:00:00 TS 14.4000 127.900 main 358 352 O________OOO__ jtwc_wp WP031947 14.4000 127.900 60 0 14.4000 127.900 TC 60 14.4000 127.900 2 60 14.4000 127.900 60 990 180 19 323
1947168N11132 1947 39 WP MM CAROL 1947-06-19 03:00:00 TS 14.9345 127.496 main 352 334 P________PPP__ WP031947 14.9392 127.519 62 0 14.9392 127.519 TC 62 14.9204 127.428 2 62 14.9392 127.519 62 989 180 12 321
1947168N11132 1947 39 WP MM CAROL 1947-06-19 06:00:00 TS 15.3224 127.137 main 330 310 O________OPO__ jtwc_wp WP031947 15.3000 127.200 65 1 15.3000 127.200 TC 65 15.3897 126.949 2 65 15.3000 127.200 65 989 180 12 314
1947168N11132 1947 39 WP MM CAROL 1947-06-19 09:00:00 TS 15.7775 126.579 main 318 302 P________PPP__ WP031947 15.7653 126.615 67 1 15.7653 126.615 TC 67 15.8141 126.471 2 67 15.7653 126.615 67 988 210 14 309
1947168N11132 1947 39 WP MM CAROL 1947-06-19 12:00:00 TS 16.2000 126.000 main 306 300 O________OOO__ jtwc_wp WP031947 16.2000 126.000 70 1 16.2000 126.000 TC 70 16.2000 126.000 3 70 16.2000 126.000 70 987 240 13 308
1947168N11132 1947 39 WP MM CAROL 1947-06-19 15:00:00 TS 16.5662 125.538 main 318 276 P________PPP__ WP031947 16.5722 125.527 75 1 16.5722 125.527 TC 75 16.5479 125.570 3 75 16.5722 125.527 75 983 270 11 309
1947168N11132 1947 39 WP MM CAROL 1947-06-19 18:00:00 TS 16.8909 125.111 main 276 234 O________OPO__ jtwc_wp WP031947 16.9000 125.100 80 1 16.9000 125.100 TC 80 16.8637 125.143 3 80 16.9000 125.100 80 979 300 10 307
1947168N11132 1947 39 WP MM CAROL 1947-06-19 21:00:00 TS 17.1816 124.689 main 234 189 P________PPP__ WP031947 17.1846 124.687 85 2 17.1846 124.687 TC 85 17.1727 124.695 3 85 17.1846 124.687 85 975 240 11 305
1947168N11132 1947 39 WP MM CAROL 1947-06-20 00:00:00 TS 17.5000 124.200 main 189 143 O________OOO__ jtwc_wp WP031947 17.5000 124.200 90 2 17.5000 124.200 TC 90 17.5000 124.200 4 90 17.5000 124.200 90 972 180 13 304
1947168N11132 1947 39 WP MM CAROL 1947-06-20 03:00:00 TS 17.9280 123.530 main 134 63 P________PPP__ WP031947 17.9428 123.515 95 2 17.9428 123.515 TC 95 17.8836 123.574 4 92 17.9428 123.515 95 966 180 16 304
1947168N11132 1947 39 WP MM CAROL 1947-06-20 06:00:00 TS 18.3717 122.827 main 52 23 O________OPO__ jtwc_wp WP031947 18.4000 122.800 100 3 18.4000 122.800 TC 100 18.2867 122.906 4 95 18.4000 122.800 100 960 180 15 303
1947168N11132 1947 39 WP MM CAROL 1947-06-20 09:00:00 TS 18.7307 122.230 main 33 33 P________PPP__ WP031947 18.7422 122.219 100 3 18.7422 122.219 TC 100 18.6962 122.261 4 97 18.7422 122.219 100 961 240 13 304
1947168N11132 1947 39 WP MM CAROL 1947-06-20 12:00:00 TS 19.1000 121.700 main 74 70 O________OOO__ jtwc_wp WP031947 19.1000 121.700 100 3 19.1000 121.700 TC 100 19.1000 121.700 4 100 19.1000 121.700 100 963 300 13 311
1947168N11132 1947 39 WP MM CAROL 1947-06-20 15:00:00 TS 19.5857 121.172 main 116 113 P________PPP__ WP031947 19.6151 121.133 95 2 19.6151 121.133 TC 95 19.4973 121.289 4 95 19.6151 121.133 95 965 360 13 317
1947168N11132 1947 39 WP MM CAROL 1947-06-20 18:00:00 TS 20.0465 120.768 main 156 156 O________OPO__ jtwc_wp WP031947 20.1000 120.700 90 2 20.1000 120.700 TC 90 19.8861 120.971 4 90 20.1000 120.700 90 968 420 9 325
1947168N11132 1947 39 WP MM CAROL 1947-06-20 21:00:00 TS 20.3547 120.595 main 168 146 P________PPP__ WP031947 20.3872 120.554 85 2 20.3872 120.554 TC 85 20.2570 120.718 4 85 20.3872 120.554 85 971 390 6 336
1947168N11132 1947 39 WP MM CAROL 1947-06-21 00:00:00 TS 20.6000 120.500 main 146 126 O________OOO__ jtwc_wp WP031947 20.6000 120.500 80 1 20.6000 120.500 TC 80 20.6000 120.500 4 80 20.6000 120.500 80 974 360 6 332
1947168N11132 1947 39 WP MM CAROL 1947-06-21 03:00:00 TS 20.8588 120.302 main 119 108 P________PPP__ WP031947 20.8425 120.315 77 1 20.8425 120.315 TC 77 20.9076 120.263 4 77 20.8425 120.315 77 977 360 7 324
1947168N11132 1947 39 WP MM CAROL 1947-06-21 06:00:00 TS 21.1218 120.089 main 108 98 O________OPO__ jtwc_wp WP031947 21.1000 120.100 75 1 21.1000 120.100 TC 75 21.1872 120.054 4 75 21.1000 120.100 75 981 360 7 325
1947168N11132 1947 39 WP MM CAROL 1947-06-21 09:00:00 TS 21.4064 119.892 main 99 93 P________PPP__ WP031947 21.3925 119.900 72 1 21.3925 119.900 TC 72 21.4483 119.869 4 72 21.3925 119.900 72 984 360 7 328
1947168N11132 1947 39 WP MM CAROL 1947-06-21 12:00:00 TS 21.7000 119.700 main 105 98 O________OOO__ jtwc_wp WP031947 21.7000 119.700 70 1 21.7000 119.700 TC 70 21.7000 119.700 4 70 21.7000 119.700 70 988 360 7 328
1947168N11132 1947 39 WP MM CAROL 1947-06-21 15:00:00 TS 21.9988 119.499 main 99 93 P________PPP__ WP031947 22.0150 119.485 67 1 22.0150 119.485 TC 67 21.9501 119.542 4 65 22.0150 119.485 67 990 360 7 329
1947168N11132 1947 39 WP MM CAROL 1947-06-21 18:00:00 TS 22.2800 119.318 main 105 102 O________OPO__ jtwc_wp WP031947 22.3000 119.300 65 1 22.3000 119.300 TC 65 22.2002 119.391 4 60 22.3000 119.300 65 993 360 6 331
1947168N11132 1947 39 WP MM CAROL 1947-06-21 21:00:00 TS 22.4864 119.206 main 107 104 P________PPP__ WP031947 22.4924 119.200 57 0 22.4924 119.200 TC 57 22.4501 119.244 4 55 22.4924 119.200 57 995 360 5 334
1947168N11132 1947 39 WP MM CAROL 1947-06-22 00:00:00 TS 22.7000 119.100 main 111 107 O________OOO__ jtwc_wp WP031947 22.7000 119.100 50 0 22.7000 119.100 TC 50 22.7000 119.100 2 50 22.7000 119.100 50 997 360 6 333
1947168N11132 1947 39 WP MM CAROL 1947-06-22 03:00:00 TS 23.0311 118.905 main 123 105 P________P_P__ WP031947 23.0351 118.900 45 0 23.0351 118.900 TC 45 2 23.0151 118.925 45 998 480 8 332
1947168N11132 1947 39 WP MM CAROL 1947-06-22 06:00:00 TS 23.4000 118.700 main 105 69 O________O_O__ jtwc_wp WP031947 23.4000 118.700 40 0 23.4000 118.700 TC 40 2 23.4000 118.700 40 999 600 8 328
1947168N11132 1947 39 WP MM CAROL 1947-06-22 09:00:00 TS 23.6769 118.459 main 69 51 P________P____ WP031947 23.6769 118.459 37 0 23.6769 118.459 TC 37 2 6 343
1947168N11132 1947 39 WP MM CAROL 1947-06-22 12:00:00 TS 24.0000 118.500 main 52 30 O________O____ jtwc_wp WP031947 24.0000 118.500 35 0 24.0000 118.500 TC 35 10 37
1947168N11132 1947 39 WP MM CAROL 1947-06-22 15:00:00 TS 24.4708 119.122 main 41 41 P________P____ WP031947 24.4708 119.122 32 -1 24.4708 119.122 TC 32 17 54
1947168N11132 1947 39 WP MM CAROL 1947-06-22 18:00:00 TS 25.0000 120.000 main 52 52 O________O____ jtwc_wp WP031947 25.0000 120.000 30 -1 25.0000 120.000 TC 30 18 56
1947168N11132 1947 39 WP MM CAROL 1947-06-22 21:00:00 TS 25.5099 120.792 main 59 59 P________P____ WP031947 25.5099 120.792 27 -1 25.5099 120.792 TC 27 17 54
1947168N11132 1947 39 WP MM CAROL 1947-06-23 00:00:00 TS 26.0000 121.500 main 89 O________O____ jtwc_wp WP031947 26.0000 121.500 25 -1 26.0000 121.500 TC 25 16 52

Digital Typhoon Data and Search

About IBTrACS Database

This database is a web-friendly format of International Best Track Archive for Climate Stewardship (IBTrACS), a global best track data archive curated by NOAA dating back to 1842.

Updated: 2021-12-06